sensor_id;sensor_type;location;lat;lon;timestamp;P1;durP1;ratioP1;P2;durP2;ratioP2
64842;SDS011;51310;52.198;5.422;2023-06-14T00:01:52;10.98;;;2.63;;
64842;SDS011;51310;52.198;5.422;2023-06-14T00:04:18;5.63;;;2.63;;
64842;SDS011;51310;52.198;5.422;2023-06-14T00:06:45;3.83;;;2.13;;
64842;SDS011;51310;52.198;5.422;2023-06-14T00:09:12;4.07;;;2.47;;
64842;SDS011;51310;52.198;5.422;2023-06-14T00:11:41;10.57;;;2.90;;
64842;SDS011;51310;52.198;5.422;2023-06-14T00:14:07;8.60;;;2.83;;
64842;SDS011;51310;52.198;5.422;2023-06-14T00:16:33;12.93;;;3.30;;
64842;SDS011;51310;52.198;5.422;2023-06-14T00:19:00;10.82;;;2.70;;
64842;SDS011;51310;52.198;5.422;2023-06-14T00:21:30;5.60;;;2.72;;
64842;SDS011;51310;52.198;5.422;2023-06-14T00:23:57;6.28;;;2.47;;
64842;SDS011;51310;52.198;5.422;2023-06-14T00:26:24;3.58;;;2.20;;
64842;SDS011;51310;52.198;5.422;2023-06-14T00:28:51;7.25;;;3.03;;
64842;SDS011;51310;52.198;5.422;2023-06-14T00:31:18;5.97;;;2.17;;
64842;SDS011;51310;52.198;5.422;2023-06-14T00:33:44;5.30;;;2.47;;
64842;SDS011;51310;52.198;5.422;2023-06-14T00:36:10;6.15;;;2.40;;
64842;SDS011;51310;52.198;5.422;2023-06-14T00:38:37;3.97;;;2.50;;
64842;SDS011;51310;52.198;5.422;2023-06-14T00:41:02;10.10;;;3.63;;
64842;SDS011;51310;52.198;5.422;2023-06-14T00:43:28;9.07;;;2.45;;
64842;SDS011;51310;52.198;5.422;2023-06-14T00:45:55;6.78;;;2.45;;
64842;SDS011;51310;52.198;5.422;2023-06-14T00:48:21;6.18;;;2.63;;
64842;SDS011;51310;52.198;5.422;2023-06-14T00:50:49;11.30;;;2.80;;
64842;SDS011;51310;52.198;5.422;2023-06-14T00:53:17;5.18;;;2.30;;
64842;SDS011;51310;52.198;5.422;2023-06-14T00:55:45;4.85;;;2.50;;
64842;SDS011;51310;52.198;5.422;2023-06-14T00:58:12;12.02;;;2.65;;
64842;SDS011;51310;52.198;5.422;2023-06-14T01:00:40;4.75;;;3.05;;
64842;SDS011;51310;52.198;5.422;2023-06-14T01:03:06;7.88;;;3.03;;
64842;SDS011;51310;52.198;5.422;2023-06-14T01:05:32;6.13;;;2.75;;
64842;SDS011;51310;52.198;5.422;2023-06-14T01:10:56;5.28;;;2.30;;
64842;SDS011;51310;52.198;5.422;2023-06-14T01:13:36;7.38;;;3.50;;
64842;SDS011;51310;52.198;5.422;2023-06-14T01:16:10;10.35;;;3.38;;
64842;SDS011;51310;52.198;5.422;2023-06-14T01:18:37;5.10;;;3.08;;
64842;SDS011;51310;52.198;5.422;2023-06-14T01:21:03;3.30;;;1.95;;
64842;SDS011;51310;52.198;5.422;2023-06-14T01:23:30;4.57;;;2.40;;
64842;SDS011;51310;52.198;5.422;2023-06-14T01:25:58;4.85;;;2.20;;
64842;SDS011;51310;52.198;5.422;2023-06-14T01:28:28;4.10;;;2.65;;
64842;SDS011;51310;52.198;5.422;2023-06-14T01:30:59;5.75;;;2.33;;
64842;SDS011;51310;52.198;5.422;2023-06-14T01:33:30;4.05;;;2.28;;
64842;SDS011;51310;52.198;5.422;2023-06-14T01:36:00;5.20;;;2.40;;
64842;SDS011;51310;52.198;5.422;2023-06-14T01:38:32;5.57;;;2.10;;
64842;SDS011;51310;52.198;5.422;2023-06-14T01:40:58;4.65;;;2.35;;
64842;SDS011;51310;52.198;5.422;2023-06-14T01:43:26;6.80;;;2.30;;
64842;SDS011;51310;52.198;5.422;2023-06-14T01:45:56;7.80;;;2.33;;
64842;SDS011;51310;52.198;5.422;2023-06-14T01:48:25;6.93;;;3.03;;
64842;SDS011;51310;52.198;5.422;2023-06-14T01:50:52;6.65;;;3.08;;
64842;SDS011;51310;52.198;5.422;2023-06-14T01:53:18;27.15;;;3.65;;
64842;SDS011;51310;52.198;5.422;2023-06-14T01:55:44;11.65;;;2.20;;
64842;SDS011;51310;52.198;5.422;2023-06-14T01:58:13;6.05;;;2.85;;
64842;SDS011;51310;52.198;5.422;2023-06-14T02:00:43;9.65;;;2.30;;
64842;SDS011;51310;52.198;5.422;2023-06-14T02:03:10;6.13;;;2.15;;
64842;SDS011;51310;52.198;5.422;2023-06-14T02:05:37;6.78;;;2.35;;
64842;SDS011;51310;52.198;5.422;2023-06-14T02:08:04;4.97;;;2.00;;
64842;SDS011;51310;52.198;5.422;2023-06-14T02:10:32;9.02;;;2.30;;
64842;SDS011;51310;52.198;5.422;2023-06-14T02:12:58;5.80;;;2.67;;
64842;SDS011;51310;52.198;5.422;2023-06-14T02:15:24;12.73;;;2.85;;
64842;SDS011;51310;52.198;5.422;2023-06-14T02:17:58;8.75;;;3.55;;
64842;SDS011;51310;52.198;5.422;2023-06-14T02:20:27;4.70;;;2.15;;
64842;SDS011;51310;52.198;5.422;2023-06-14T02:22:53;3.65;;;2.30;;
64842;SDS011;51310;52.198;5.422;2023-06-14T02:25:19;4.00;;;2.38;;
64842;SDS011;51310;52.198;5.422;2023-06-14T02:27:45;4.97;;;2.13;;
64842;SDS011;51310;52.198;5.422;2023-06-14T02:30:12;2.53;;;2.05;;
64842;SDS011;51310;52.198;5.422;2023-06-14T02:32:38;4.35;;;1.75;;
64842;SDS011;51310;52.198;5.422;2023-06-14T02:35:05;3.58;;;2.20;;
64842;SDS011;51310;52.198;5.422;2023-06-14T02:37:32;4.90;;;2.05;;
64842;SDS011;51310;52.198;5.422;2023-06-14T02:39:59;8.80;;;2.75;;
64842;SDS011;51310;52.198;5.422;2023-06-14T02:42:25;3.33;;;2.08;;
64842;SDS011;51310;52.198;5.422;2023-06-14T02:44:51;8.85;;;2.42;;
64842;SDS011;51310;52.198;5.422;2023-06-14T02:47:20;4.93;;;2.22;;
64842;SDS011;51310;52.198;5.422;2023-06-14T02:49:46;5.47;;;2.28;;
64842;SDS011;51310;52.198;5.422;2023-06-14T02:52:12;5.45;;;2.53;;
64842;SDS011;51310;52.198;5.422;2023-06-14T02:54:38;13.35;;;2.63;;
64842;SDS011;51310;52.198;5.422;2023-06-14T02:57:05;4.63;;;2.35;;
64842;SDS011;51310;52.198;5.422;2023-06-14T02:59:32;6.57;;;2.40;;
64842;SDS011;51310;52.198;5.422;2023-06-14T03:02:00;5.47;;;2.63;;
64842;SDS011;51310;52.198;5.422;2023-06-14T03:04:26;3.35;;;2.67;;
64842;SDS011;51310;52.198;5.422;2023-06-14T03:06:52;6.35;;;2.50;;
64842;SDS011;51310;52.198;5.422;2023-06-14T03:09:19;5.38;;;2.45;;
64842;SDS011;51310;52.198;5.422;2023-06-14T03:11:45;22.40;;;2.65;;
64842;SDS011;51310;52.198;5.422;2023-06-14T03:14:11;4.60;;;2.53;;
64842;SDS011;51310;52.198;5.422;2023-06-14T03:16:38;4.55;;;2.45;;
64842;SDS011;51310;52.198;5.422;2023-06-14T03:19:06;7.93;;;2.75;;
64842;SDS011;51310;52.198;5.422;2023-06-14T03:21:32;4.00;;;2.38;;
64842;SDS011;51310;52.198;5.422;2023-06-14T03:23:59;4.25;;;2.47;;
64842;SDS011;51310;52.198;5.422;2023-06-14T03:26:25;5.60;;;2.75;;
64842;SDS011;51310;52.198;5.422;2023-06-14T03:28:51;13.20;;;2.42;;
64842;SDS011;51310;52.198;5.422;2023-06-14T03:31:17;4.00;;;1.90;;
64842;SDS011;51310;52.198;5.422;2023-06-14T03:33:44;6.47;;;2.35;;
64842;SDS011;51310;52.198;5.422;2023-06-14T03:36:10;8.88;;;3.25;;
64842;SDS011;51310;52.198;5.422;2023-06-14T03:38:36;3.42;;;2.30;;
64842;SDS011;51310;52.198;5.422;2023-06-14T03:41:01;9.65;;;2.75;;
64842;SDS011;51310;52.198;5.422;2023-06-14T03:43:27;9.00;;;2.78;;
64842;SDS011;51310;52.198;5.422;2023-06-14T03:45:55;6.63;;;2.42;;
64842;SDS011;51310;52.198;5.422;2023-06-14T03:48:21;3.25;;;2.47;;
64842;SDS011;51310;52.198;5.422;2023-06-14T03:50:47;6.03;;;2.50;;
64842;SDS011;51310;52.198;5.422;2023-06-14T03:53:13;6.32;;;2.67;;
64842;SDS011;51310;52.198;5.422;2023-06-14T03:55:38;7.78;;;2.60;;
64842;SDS011;51310;52.198;5.422;2023-06-14T03:58:04;3.30;;;2.28;;
64842;SDS011;51310;52.198;5.422;2023-06-14T04:00:31;4.88;;;2.65;;
64842;SDS011;51310;52.198;5.422;2023-06-14T04:02:57;9.02;;;2.58;;
64842;SDS011;51310;52.198;5.422;2023-06-14T04:05:23;6.15;;;2.20;;
64842;SDS011;51310;52.198;5.422;2023-06-14T04:07:51;11.40;;;2.67;;
64842;SDS011;51310;52.198;5.422;2023-06-14T04:10:20;11.63;;;2.85;;
64842;SDS011;51310;52.198;5.422;2023-06-14T04:12:48;5.68;;;2.60;;
64842;SDS011;51310;52.198;5.422;2023-06-14T04:15:14;8.38;;;2.97;;
64842;SDS011;51310;52.198;5.422;2023-06-14T04:17:40;8.20;;;3.17;;
64842;SDS011;51310;52.198;5.422;2023-06-14T04:20:06;4.63;;;2.88;;
64842;SDS011;51310;52.198;5.422;2023-06-14T04:22:34;7.35;;;3.53;;
64842;SDS011;51310;52.198;5.422;2023-06-14T04:25:01;5.63;;;2.65;;
64842;SDS011;51310;52.198;5.422;2023-06-14T04:27:28;8.65;;;2.78;;
64842;SDS011;51310;52.198;5.422;2023-06-14T04:29:56;8.32;;;2.80;;
64842;SDS011;51310;52.198;5.422;2023-06-14T04:32:26;3.28;;;2.53;;
64842;SDS011;51310;52.198;5.422;2023-06-14T04:34:55;6.93;;;2.72;;
64842;SDS011;51310;52.198;5.422;2023-06-14T04:37:22;4.97;;;2.60;;
64842;SDS011;51310;52.198;5.422;2023-06-14T04:39:48;5.72;;;2.63;;
64842;SDS011;51310;52.198;5.422;2023-06-14T04:42:15;6.25;;;2.90;;
64842;SDS011;51310;52.198;5.422;2023-06-14T04:44:42;10.35;;;3.17;;
64842;SDS011;51310;52.198;5.422;2023-06-14T04:47:09;4.35;;;2.35;;
64842;SDS011;51310;52.198;5.422;2023-06-14T04:49:37;7.93;;;2.45;;
64842;SDS011;51310;52.198;5.422;2023-06-14T04:52:05;4.75;;;2.55;;
64842;SDS011;51310;52.198;5.422;2023-06-14T04:54:32;9.32;;;2.47;;
64842;SDS011;51310;52.198;5.422;2023-06-14T04:56:59;5.15;;;2.58;;
64842;SDS011;51310;52.198;5.422;2023-06-14T04:59:25;7.68;;;2.58;;
64842;SDS011;51310;52.198;5.422;2023-06-14T05:01:51;8.05;;;2.95;;
64842;SDS011;51310;52.198;5.422;2023-06-14T05:04:18;8.63;;;2.47;;
64842;SDS011;51310;52.198;5.422;2023-06-14T05:06:46;8.25;;;2.72;;
64842;SDS011;51310;52.198;5.422;2023-06-14T05:09:15;6.82;;;2.70;;
64842;SDS011;51310;52.198;5.422;2023-06-14T05:11:44;3.50;;;2.35;;
64842;SDS011;51310;52.198;5.422;2023-06-14T05:14:13;5.35;;;2.33;;
64842;SDS011;51310;52.198;5.422;2023-06-14T05:16:39;11.32;;;2.60;;
64842;SDS011;51310;52.198;5.422;2023-06-14T05:19:06;8.68;;;3.10;;
64842;SDS011;51310;52.198;5.422;2023-06-14T05:21:32;14.68;;;2.97;;
64842;SDS011;51310;52.198;5.422;2023-06-14T05:24:02;6.10;;;2.42;;
64842;SDS011;51310;52.198;5.422;2023-06-14T05:26:28;13.07;;;2.30;;
64842;SDS011;51310;52.198;5.422;2023-06-14T05:28:55;7.85;;;2.00;;
64842;SDS011;51310;52.198;5.422;2023-06-14T05:31:23;7.25;;;2.33;;
64842;SDS011;51310;52.198;5.422;2023-06-14T05:33:51;7.15;;;2.20;;
64842;SDS011;51310;52.198;5.422;2023-06-14T05:36:18;12.90;;;2.75;;
64842;SDS011;51310;52.198;5.422;2023-06-14T05:38:46;4.30;;;2.50;;
64842;SDS011;51310;52.198;5.422;2023-06-14T05:41:12;8.85;;;2.72;;
64842;SDS011;51310;52.198;5.422;2023-06-14T05:43:38;3.70;;;2.50;;
64842;SDS011;51310;52.198;5.422;2023-06-14T05:46:05;3.85;;;2.38;;
64842;SDS011;51310;52.198;5.422;2023-06-14T05:48:31;15.63;;;2.40;;
64842;SDS011;51310;52.198;5.422;2023-06-14T05:50:57;12.05;;;2.60;;
64842;SDS011;51310;52.198;5.422;2023-06-14T05:53:24;10.85;;;3.03;;
64842;SDS011;51310;52.198;5.422;2023-06-14T05:55:50;2.83;;;2.13;;
64842;SDS011;51310;52.198;5.422;2023-06-14T05:58:20;7.78;;;2.88;;
64842;SDS011;51310;52.198;5.422;2023-06-14T06:00:47;4.05;;;2.38;;
64842;SDS011;51310;52.198;5.422;2023-06-14T06:03:13;3.92;;;2.20;;
64842;SDS011;51310;52.198;5.422;2023-06-14T06:05:39;5.97;;;2.95;;
64842;SDS011;51310;52.198;5.422;2023-06-14T06:08:05;3.13;;;1.90;;
64842;SDS011;51310;52.198;5.422;2023-06-14T06:10:31;7.10;;;3.13;;
64842;SDS011;51310;52.198;5.422;2023-06-14T06:12:57;5.82;;;2.92;;
64842;SDS011;51310;52.198;5.422;2023-06-14T06:15:23;6.80;;;2.40;;
64842;SDS011;51310;52.198;5.422;2023-06-14T06:17:49;6.43;;;2.63;;
64842;SDS011;51310;52.198;5.422;2023-06-14T06:20:16;4.18;;;2.28;;
64842;SDS011;51310;52.198;5.422;2023-06-14T06:22:42;8.30;;;2.30;;
64842;SDS011;51310;52.198;5.422;2023-06-14T06:25:08;6.60;;;2.60;;
64842;SDS011;51310;52.198;5.422;2023-06-14T06:27:34;4.95;;;2.03;;
64842;SDS011;51310;52.198;5.422;2023-06-14T06:30:02;9.88;;;2.13;;
64842;SDS011;51310;52.198;5.422;2023-06-14T06:32:29;10.25;;;2.50;;
64842;SDS011;51310;52.198;5.422;2023-06-14T06:34:55;4.97;;;2.88;;
64842;SDS011;51310;52.198;5.422;2023-06-14T06:37:21;6.13;;;2.25;;
64842;SDS011;51310;52.198;5.422;2023-06-14T06:39:47;5.80;;;2.20;;
64842;SDS011;51310;52.198;5.422;2023-06-14T06:42:12;4.97;;;2.60;;
64842;SDS011;51310;52.198;5.422;2023-06-14T06:44:38;5.65;;;2.50;;
64842;SDS011;51310;52.198;5.422;2023-06-14T06:47:05;11.77;;;3.17;;
64842;SDS011;51310;52.198;5.422;2023-06-14T06:49:31;4.78;;;2.38;;
64842;SDS011;51310;52.198;5.422;2023-06-14T06:52:01;4.38;;;2.47;;
64842;SDS011;51310;52.198;5.422;2023-06-14T06:54:32;9.52;;;3.45;;
64842;SDS011;51310;52.198;5.422;2023-06-14T06:56:59;11.45;;;2.80;;
64842;SDS011;51310;52.198;5.422;2023-06-14T06:59:28;2.95;;;2.55;;
64842;SDS011;51310;52.198;5.422;2023-06-14T07:01:55;13.65;;;2.55;;
64842;SDS011;51310;52.198;5.422;2023-06-14T07:04:21;3.28;;;2.15;;
64842;SDS011;51310;52.198;5.422;2023-06-14T07:06:47;6.82;;;3.85;;
64842;SDS011;51310;52.198;5.422;2023-06-14T07:09:13;5.60;;;2.03;;
64842;SDS011;51310;52.198;5.422;2023-06-14T07:11:44;14.40;;;2.08;;
64842;SDS011;51310;52.198;5.422;2023-06-14T07:14:10;5.18;;;2.22;;
64842;SDS011;51310;52.198;5.422;2023-06-14T07:16:37;5.00;;;2.13;;
64842;SDS011;51310;52.198;5.422;2023-06-14T07:19:03;6.13;;;2.60;;
64842;SDS011;51310;52.198;5.422;2023-06-14T07:21:30;2.42;;;1.70;;
64842;SDS011;51310;52.198;5.422;2023-06-14T07:23:56;3.28;;;2.05;;
64842;SDS011;51310;52.198;5.422;2023-06-14T07:26:22;7.18;;;2.47;;
64842;SDS011;51310;52.198;5.422;2023-06-14T07:28:48;4.80;;;2.45;;
64842;SDS011;51310;52.198;5.422;2023-06-14T07:31:15;3.65;;;2.13;;
64842;SDS011;51310;52.198;5.422;2023-06-14T07:33:42;6.90;;;2.05;;
64842;SDS011;51310;52.198;5.422;2023-06-14T07:36:08;3.60;;;1.80;;
64842;SDS011;51310;52.198;5.422;2023-06-14T07:38:34;4.63;;;2.10;;
64842;SDS011;51310;52.198;5.422;2023-06-14T07:41:01;7.57;;;2.35;;
64842;SDS011;51310;52.198;5.422;2023-06-14T07:43:28;7.35;;;2.40;;
64842;SDS011;51310;52.198;5.422;2023-06-14T07:45:54;8.38;;;1.95;;
64842;SDS011;51310;52.198;5.422;2023-06-14T07:48:21;3.45;;;1.98;;
64842;SDS011;51310;52.198;5.422;2023-06-14T07:50:47;5.82;;;2.28;;
64842;SDS011;51310;52.198;5.422;2023-06-14T07:53:13;3.60;;;2.05;;
64842;SDS011;51310;52.198;5.422;2023-06-14T07:55:39;4.13;;;1.75;;
64842;SDS011;51310;52.198;5.422;2023-06-14T07:58:08;6.45;;;2.40;;
64842;SDS011;51310;52.198;5.422;2023-06-14T08:00:35;4.60;;;1.80;;
64842;SDS011;51310;52.198;5.422;2023-06-14T08:03:01;3.15;;;1.88;;
64842;SDS011;51310;52.198;5.422;2023-06-14T08:05:29;4.07;;;1.73;;
64842;SDS011;51310;52.198;5.422;2023-06-14T08:07:55;4.60;;;1.90;;
64842;SDS011;51310;52.198;5.422;2023-06-14T08:10:21;3.42;;;1.77;;
64842;SDS011;51310;52.198;5.422;2023-06-14T08:12:48;3.95;;;1.73;;
64842;SDS011;51310;52.198;5.422;2023-06-14T08:15:17;6.00;;;2.45;;
64842;SDS011;51310;52.198;5.422;2023-06-14T08:17:43;3.97;;;2.42;;
64842;SDS011;51310;52.198;5.422;2023-06-14T08:20:10;7.07;;;1.88;;
64842;SDS011;51310;52.198;5.422;2023-06-14T08:22:41;3.65;;;1.67;;
64842;SDS011;51310;52.198;5.422;2023-06-14T08:25:08;4.00;;;1.88;;
64842;SDS011;51310;52.198;5.422;2023-06-14T08:27:37;7.68;;;1.60;;
64842;SDS011;51310;52.198;5.422;2023-06-14T08:30:03;2.45;;;1.67;;
64842;SDS011;51310;52.198;5.422;2023-06-14T08:32:30;2.03;;;1.30;;
64842;SDS011;51310;52.198;5.422;2023-06-14T08:34:55;2.47;;;1.52;;
64842;SDS011;51310;52.198;5.422;2023-06-14T08:37:21;2.67;;;1.67;;
64842;SDS011;51310;52.198;5.422;2023-06-14T08:42:23;2.92;;;1.50;;
64842;SDS011;51310;52.198;5.422;2023-06-14T08:44:50;3.67;;;1.80;;
64842;SDS011;51310;52.198;5.422;2023-06-14T08:47:16;2.50;;;1.45;;
64842;SDS011;51310;52.198;5.422;2023-06-14T08:49:45;7.18;;;1.67;;
64842;SDS011;51310;52.198;5.422;2023-06-14T08:52:13;2.33;;;1.30;;
64842;SDS011;51310;52.198;5.422;2023-06-14T08:54:45;3.15;;;1.55;;
64842;SDS011;51310;52.198;5.422;2023-06-14T08:57:13;2.17;;;1.40;;
64842;SDS011;51310;52.198;5.422;2023-06-14T08:59:42;4.35;;;1.42;;
64842;SDS011;51310;52.198;5.422;2023-06-14T09:02:17;5.18;;;1.45;;
64842;SDS011;51310;52.198;5.422;2023-06-14T09:04:47;2.80;;;1.58;;
64842;SDS011;51310;52.198;5.422;2023-06-14T09:07:14;2.00;;;1.42;;
64842;SDS011;51310;52.198;5.422;2023-06-14T09:09:40;4.22;;;1.80;;
64842;SDS011;51310;52.198;5.422;2023-06-14T09:12:10;3.67;;;1.50;;
64842;SDS011;51310;52.198;5.422;2023-06-14T09:14:37;3.78;;;1.33;;
64842;SDS011;51310;52.198;5.422;2023-06-14T09:17:05;3.50;;;1.63;;
64842;SDS011;51310;52.198;5.422;2023-06-14T09:19:31;1.52;;;1.13;;
64842;SDS011;51310;52.198;5.422;2023-06-14T09:21:58;2.03;;;1.50;;
64842;SDS011;51310;52.198;5.422;2023-06-14T09:24:25;2.95;;;1.90;;
64842;SDS011;51310;52.198;5.422;2023-06-14T09:26:51;3.28;;;1.63;;
64842;SDS011;51310;52.198;5.422;2023-06-14T09:29:18;3.40;;;1.80;;
64842;SDS011;51310;52.198;5.422;2023-06-14T09:31:46;2.20;;;1.35;;
64842;SDS011;51310;52.198;5.422;2023-06-14T09:34:12;4.65;;;1.65;;
64842;SDS011;51310;52.198;5.422;2023-06-14T09:36:38;3.40;;;1.35;;
64842;SDS011;51310;52.198;5.422;2023-06-14T09:39:07;3.92;;;1.55;;
64842;SDS011;51310;52.198;5.422;2023-06-14T09:41:40;6.65;;;1.67;;
64842;SDS011;51310;52.198;5.422;2023-06-14T09:44:08;5.00;;;1.85;;
64842;SDS011;51310;52.198;5.422;2023-06-14T09:46:37;2.30;;;1.70;;
64842;SDS011;51310;52.198;5.422;2023-06-14T09:49:03;1.65;;;1.30;;
64842;SDS011;51310;52.198;5.422;2023-06-14T09:51:31;1.83;;;1.50;;
64842;SDS011;51310;52.198;5.422;2023-06-14T09:53:58;2.45;;;1.38;;
64842;SDS011;51310;52.198;5.422;2023-06-14T09:56:29;4.20;;;1.83;;
64842;SDS011;51310;52.198;5.422;2023-06-14T09:59:02;2.10;;;1.60;;
64842;SDS011;51310;52.198;5.422;2023-06-14T10:01:32;9.63;;;1.33;;
64842;SDS011;51310;52.198;5.422;2023-06-14T10:04:04;18.60;;;3.22;;
64842;SDS011;51310;52.198;5.422;2023-06-14T10:06:34;3.85;;;1.70;;
64842;SDS011;51310;52.198;5.422;2023-06-14T10:09:07;2.50;;;1.90;;
64842;SDS011;51310;52.198;5.422;2023-06-14T10:11:35;2.85;;;1.75;;
64842;SDS011;51310;52.198;5.422;2023-06-14T10:14:10;3.30;;;1.42;;
64842;SDS011;51310;52.198;5.422;2023-06-14T10:16:42;4.32;;;1.70;;
64842;SDS011;51310;52.198;5.422;2023-06-14T10:19:42;2.45;;;1.40;;
64842;SDS011;51310;52.198;5.422;2023-06-14T10:22:50;5.50;;;1.52;;
64842;SDS011;51310;52.198;5.422;2023-06-14T10:25:43;3.03;;;1.52;;
64842;SDS011;51310;52.198;5.422;2023-06-14T10:33:48;4.03;;;1.63;;
64842;SDS011;51310;52.198;5.422;2023-06-14T10:41:31;4.82;;;1.67;;
64842;SDS011;51310;52.198;5.422;2023-06-14T10:46:49;4.72;;;1.40;;
64842;SDS011;51310;52.198;5.422;2023-06-14T10:49:36;2.30;;;1.33;;
64842;SDS011;51310;52.198;5.422;2023-06-14T10:52:13;6.68;;;1.90;;
64842;SDS011;51310;52.198;5.422;2023-06-14T10:57:44;1.83;;;1.27;;
64842;SDS011;51310;52.198;5.422;2023-06-14T11:00:16;1.90;;;1.20;;
64842;SDS011;51310;52.198;5.422;2023-06-14T11:05:50;4.43;;;1.48;;
64842;SDS011;51310;52.198;5.422;2023-06-14T11:08:38;2.05;;;1.40;;
64842;SDS011;51310;52.198;5.422;2023-06-14T11:11:48;7.28;;;1.58;;
64842;SDS011;51310;52.198;5.422;2023-06-14T11:14:16;3.38;;;1.90;;
64842;SDS011;51310;52.198;5.422;2023-06-14T11:16:47;2.70;;;1.40;;
64842;SDS011;51310;52.198;5.422;2023-06-14T11:19:14;5.97;;;1.48;;
64842;SDS011;51310;52.198;5.422;2023-06-14T11:21:42;3.55;;;1.17;;
64842;SDS011;51310;52.198;5.422;2023-06-14T11:24:11;2.10;;;1.60;;
64842;SDS011;51310;52.198;5.422;2023-06-14T11:26:38;2.78;;;1.30;;
64842;SDS011;51310;52.198;5.422;2023-06-14T11:29:05;6.78;;;1.80;;
64842;SDS011;51310;52.198;5.422;2023-06-14T11:31:31;3.30;;;1.48;;
64842;SDS011;51310;52.198;5.422;2023-06-14T11:33:58;3.40;;;1.58;;
64842;SDS011;51310;52.198;5.422;2023-06-14T11:36:29;2.35;;;1.30;;
64842;SDS011;51310;52.198;5.422;2023-06-14T11:41:37;5.55;;;1.75;;
64842;SDS011;51310;52.198;5.422;2023-06-14T11:44:07;4.53;;;2.03;;
64842;SDS011;51310;52.198;5.422;2023-06-14T11:46:34;2.15;;;1.30;;
64842;SDS011;51310;52.198;5.422;2023-06-14T11:49:01;5.45;;;1.40;;
64842;SDS011;51310;52.198;5.422;2023-06-14T11:51:35;1.90;;;1.48;;
64842;SDS011;51310;52.198;5.422;2023-06-14T11:54:02;3.58;;;1.73;;
64842;SDS011;51310;52.198;5.422;2023-06-14T11:56:31;1.95;;;1.30;;
64842;SDS011;51310;52.198;5.422;2023-06-14T11:58:57;4.20;;;1.63;;
64842;SDS011;51310;52.198;5.422;2023-06-14T12:01:24;2.30;;;1.30;;
64842;SDS011;51310;52.198;5.422;2023-06-14T12:03:51;2.85;;;1.58;;
64842;SDS011;51310;52.198;5.422;2023-06-14T12:06:26;3.65;;;1.60;;
64842;SDS011;51310;52.198;5.422;2023-06-14T12:08:57;2.50;;;1.48;;
64842;SDS011;51310;52.198;5.422;2023-06-14T12:11:23;2.42;;;1.40;;
64842;SDS011;51310;52.198;5.422;2023-06-14T12:14:02;1.98;;;1.23;;
64842;SDS011;51310;52.198;5.422;2023-06-14T12:16:34;2.30;;;1.30;;
64842;SDS011;51310;52.198;5.422;2023-06-14T12:19:25;4.80;;;1.50;;
64842;SDS011;51310;52.198;5.422;2023-06-14T12:21:51;2.40;;;1.38;;
64842;SDS011;51310;52.198;5.422;2023-06-14T12:24:17;6.05;;;2.10;;
64842;SDS011;51310;52.198;5.422;2023-06-14T12:26:43;6.60;;;2.28;;
64842;SDS011;51310;52.198;5.422;2023-06-14T12:29:09;7.78;;;1.38;;
64842;SDS011;51310;52.198;5.422;2023-06-14T12:31:37;4.45;;;2.10;;
64842;SDS011;51310;52.198;5.422;2023-06-14T12:34:03;2.17;;;1.58;;
64842;SDS011;51310;52.198;5.422;2023-06-14T12:36:29;3.85;;;1.58;;
64842;SDS011;51310;52.198;5.422;2023-06-14T12:38:56;4.90;;;1.40;;
64842;SDS011;51310;52.198;5.422;2023-06-14T12:41:22;2.67;;;1.63;;
64842;SDS011;51310;52.198;5.422;2023-06-14T12:43:49;5.72;;;1.45;;
64842;SDS011;51310;52.198;5.422;2023-06-14T12:46:15;3.03;;;1.50;;
64842;SDS011;51310;52.198;5.422;2023-06-14T12:48:42;2.72;;;1.67;;
64842;SDS011;51310;52.198;5.422;2023-06-14T12:51:08;5.78;;;2.00;;
64842;SDS011;51310;52.198;5.422;2023-06-14T12:53:33;3.80;;;1.38;;
64842;SDS011;51310;52.198;5.422;2023-06-14T12:55:59;5.57;;;2.30;;
64842;SDS011;51310;52.198;5.422;2023-06-14T12:58:25;2.78;;;1.50;;
64842;SDS011;51310;52.198;5.422;2023-06-14T13:00:51;4.93;;;1.73;;
64842;SDS011;51310;52.198;5.422;2023-06-14T13:03:17;3.33;;;1.67;;
64842;SDS011;51310;52.198;5.422;2023-06-14T13:05:43;3.72;;;1.25;;
64842;SDS011;51310;52.198;5.422;2023-06-14T13:08:09;5.00;;;1.20;;
64842;SDS011;51310;52.198;5.422;2023-06-14T13:10:35;4.53;;;1.27;;
64842;SDS011;51310;52.198;5.422;2023-06-14T13:13:01;5.88;;;1.60;;
64842;SDS011;51310;52.198;5.422;2023-06-14T13:15:28;1.90;;;1.27;;
64842;SDS011;51310;52.198;5.422;2023-06-14T13:17:53;2.45;;;1.42;;
64842;SDS011;51310;52.198;5.422;2023-06-14T13:20:20;3.90;;;1.63;;
64842;SDS011;51310;52.198;5.422;2023-06-14T13:22:46;2.17;;;1.42;;
64842;SDS011;51310;52.198;5.422;2023-06-14T13:25:12;7.50;;;1.50;;
64842;SDS011;51310;52.198;5.422;2023-06-14T13:27:38;2.00;;;1.40;;
64842;SDS011;51310;52.198;5.422;2023-06-14T13:30:04;4.70;;;1.42;;
64842;SDS011;51310;52.198;5.422;2023-06-14T13:32:31;2.95;;;1.50;;
64842;SDS011;51310;52.198;5.422;2023-06-14T13:34:57;7.05;;;1.33;;
64842;SDS011;51310;52.198;5.422;2023-06-14T13:37:23;3.47;;;1.58;;
64842;SDS011;51310;52.198;5.422;2023-06-14T13:39:49;2.30;;;1.42;;
64842;SDS011;51310;52.198;5.422;2023-06-14T13:42:15;1.95;;;1.40;;
64842;SDS011;51310;52.198;5.422;2023-06-14T13:44:41;5.65;;;1.45;;
64842;SDS011;51310;52.198;5.422;2023-06-14T13:47:07;11.88;;;1.50;;
64842;SDS011;51310;52.198;5.422;2023-06-14T13:49:32;3.35;;;1.50;;
64842;SDS011;51310;52.198;5.422;2023-06-14T13:52:00;5.60;;;1.40;;
64842;SDS011;51310;52.198;5.422;2023-06-14T13:54:26;3.75;;;1.35;;
64842;SDS011;51310;52.198;5.422;2023-06-14T13:56:52;2.78;;;1.38;;
64842;SDS011;51310;52.198;5.422;2023-06-14T13:59:19;5.90;;;1.83;;
64842;SDS011;51310;52.198;5.422;2023-06-14T14:01:45;3.30;;;1.40;;
64842;SDS011;51310;52.198;5.422;2023-06-14T14:04:12;7.28;;;1.40;;
64842;SDS011;51310;52.198;5.422;2023-06-14T14:06:38;2.85;;;1.50;;
64842;SDS011;51310;52.198;5.422;2023-06-14T14:09:04;4.68;;;2.03;;
64842;SDS011;51310;52.198;5.422;2023-06-14T14:11:29;8.43;;;1.92;;
64842;SDS011;51310;52.198;5.422;2023-06-14T14:13:58;2.55;;;1.40;;
64842;SDS011;51310;52.198;5.422;2023-06-14T14:16:24;2.20;;;1.30;;
64842;SDS011;51310;52.198;5.422;2023-06-14T14:18:50;2.85;;;1.60;;
64842;SDS011;51310;52.198;5.422;2023-06-14T14:21:16;2.22;;;1.40;;
64842;SDS011;51310;52.198;5.422;2023-06-14T14:23:42;2.55;;;1.63;;
64842;SDS011;51310;52.198;5.422;2023-06-14T14:26:10;3.38;;;1.60;;
64842;SDS011;51310;52.198;5.422;2023-06-14T14:28:36;1.65;;;1.15;;
64842;SDS011;51310;52.198;5.422;2023-06-14T14:31:02;4.00;;;1.40;;
64842;SDS011;51310;52.198;5.422;2023-06-14T14:33:28;2.35;;;1.33;;
64842;SDS011;51310;52.198;5.422;2023-06-14T14:35:53;2.90;;;1.85;;
64842;SDS011;51310;52.198;5.422;2023-06-14T14:38:19;2.38;;;1.33;;
64842;SDS011;51310;52.198;5.422;2023-06-14T14:40:46;2.58;;;1.65;;
64842;SDS011;51310;52.198;5.422;2023-06-14T14:43:12;4.45;;;1.83;;
64842;SDS011;51310;52.198;5.422;2023-06-14T14:45:38;5.75;;;1.42;;
64842;SDS011;51310;52.198;5.422;2023-06-14T14:48:04;2.28;;;1.30;;
64842;SDS011;51310;52.198;5.422;2023-06-14T14:50:30;2.25;;;1.52;;
64842;SDS011;51310;52.198;5.422;2023-06-14T14:52:58;9.13;;;1.58;;
64842;SDS011;51310;52.198;5.422;2023-06-14T14:55:24;4.85;;;1.30;;
64842;SDS011;51310;52.198;5.422;2023-06-14T14:57:49;6.07;;;1.00;;
64842;SDS011;51310;52.198;5.422;2023-06-14T15:00:16;3.95;;;1.40;;
64842;SDS011;51310;52.198;5.422;2023-06-14T15:02:42;2.00;;;1.38;;
64842;SDS011;51310;52.198;5.422;2023-06-14T15:05:08;2.80;;;1.52;;
64842;SDS011;51310;52.198;5.422;2023-06-14T15:07:34;3.85;;;1.10;;
64842;SDS011;51310;52.198;5.422;2023-06-14T15:10:00;4.18;;;1.48;;
64842;SDS011;51310;52.198;5.422;2023-06-14T15:12:27;3.10;;;1.10;;
64842;SDS011;51310;52.198;5.422;2023-06-14T15:14:53;6.43;;;1.20;;
64842;SDS011;51310;52.198;5.422;2023-06-14T15:17:19;10.38;;;1.20;;